Terminal Aerodrome Forecast
Issued by NWS Memphis, TN

Home | Current Version | Previous Version | Text Only | Print | Product List | Glossary On
Versions: 1 2 3 4 5 6 7 8 9 10 11 12 13 14
000
FTUS44 KMEG 251137
TAFJBR
TAF
KJBR 251137Z 2512/2612 18003KT P6SM SKC
     FM251400 18010KT P6SM SKC
     FM251700 19018G25KT P6SM FEW250
     FM260000 18012KT P6SM FEW250
     FM260600 19013KT P6SM BKN025
     FM260900 19012KT P6SM BKN015=

USA.gov is the U.S. government's official web portal to all federal, state and local government web resources and services.